createdAt,value
2018-08-06T00:00:29.707Z,88.90
2018-08-06T00:02:58.417Z,89.60
2018-08-06T00:05:27.076Z,89.50
2018-08-06T00:07:55.780Z,88.70
2018-08-06T00:10:36.171Z,89.10
2018-08-06T00:13:04.932Z,89.60
2018-08-06T00:15:33.551Z,89.80
2018-08-06T00:18:02.233Z,89.70
2018-08-06T00:22:59.141Z,89.80
2018-08-06T00:25:27.765Z,88.80
2018-08-06T00:27:56.378Z,88.60
2018-08-06T00:30:25.062Z,89.70
2018-08-06T00:32:53.697Z,90.10
2018-08-06T00:35:22.377Z,90.00
2018-08-06T00:37:51.070Z,90.20
2018-08-06T00:40:20.945Z,90.00
2018-08-06T00:42:50.001Z,90.30
2018-08-06T00:45:20.159Z,90.20
2018-08-06T00:47:49.469Z,90.10
2018-08-06T00:50:18.132Z,90.40
2018-08-06T00:52:46.882Z,90.40
2018-08-06T00:55:17.396Z,90.40
2018-08-06T00:57:46.055Z,91.00
2018-08-06T01:00:18.873Z,90.80
2018-08-06T01:02:47.590Z,90.90
2018-08-06T01:05:16.769Z,91.40
2018-08-06T01:07:45.812Z,91.80
2018-08-06T01:10:17.658Z,91.80
2018-08-06T01:12:46.436Z,92.70
2018-08-06T01:15:18.275Z,91.60
2018-08-06T01:17:47.014Z,92.50
2018-08-06T01:20:16.089Z,91.60
2018-08-06T01:22:45.676Z,91.60
2018-08-06T01:25:14.854Z,91.40
2018-08-06T01:27:43.625Z,91.20
2018-08-06T01:30:14.037Z,91.30
2018-08-06T01:32:42.799Z,91.80
2018-08-06T01:35:11.868Z,91.60
2018-08-06T01:37:40.578Z,91.10
2018-08-06T01:40:11.872Z,90.80
2018-08-06T01:42:40.831Z,90.80
2018-08-06T01:45:10.653Z,91.10
2018-08-06T01:47:39.625Z,91.40
2018-08-06T01:50:09.220Z,91.70
2018-08-06T01:52:37.953Z,92.30
2018-08-06T01:55:06.616Z,92.30
2018-08-06T01:57:35.455Z,91.70
2018-08-06T02:00:06.345Z,92.00
2018-08-06T02:02:35.051Z,91.70
2018-08-06T02:05:03.757Z,91.80
2018-08-06T02:07:32.466Z,92.10
2018-08-06T02:10:01.096Z,92.40
2018-08-06T02:12:29.770Z,92.50
2018-08-06T02:14:58.433Z,91.90
2018-08-06T02:17:27.088Z,92.10
2018-08-06T02:19:55.676Z,91.60
2018-08-06T02:22:24.388Z,91.80
2018-08-06T02:24:53.010Z,91.90
2018-08-06T02:27:21.700Z,91.70
2018-08-06T02:29:50.339Z,91.70
2018-08-06T02:32:19.014Z,91.90
2018-08-06T02:34:47.731Z,92.20
2018-08-06T02:37:16.405Z,92.10
2018-08-06T02:39:45.020Z,92.50
2018-08-06T02:42:13.760Z,92.70
2018-08-06T02:44:42.414Z,92.70
2018-08-06T02:47:11.136Z,93.10
2018-08-06T02:49:39.823Z,92.50
2018-08-06T02:52:08.473Z,93.20
2018-08-06T02:54:37.101Z,93.10
2018-08-06T02:57:06.434Z,92.90
2018-08-06T02:59:35.110Z,93.10
2018-08-06T03:02:04.131Z,93.40
2018-08-06T03:04:32.793Z,93.10
2018-08-06T03:07:01.407Z,93.20
2018-08-06T03:09:30.067Z,93.00
2018-08-06T03:11:58.811Z,92.80
2018-08-06T03:14:27.428Z,92.80
2018-08-06T03:16:56.149Z,92.50
2018-08-06T03:19:24.904Z,92.70
2018-08-06T03:21:53.574Z,92.80
2018-08-06T03:24:22.261Z,93.20
2018-08-06T03:26:50.879Z,93.20
2018-08-06T03:29:19.520Z,93.20
2018-08-06T03:31:48.207Z,93.20
2018-08-06T03:34:16.833Z,93.50
2018-08-06T03:36:45.492Z,93.80
2018-08-06T03:39:14.152Z,93.90
2018-08-06T03:41:42.798Z,93.40
2018-08-06T03:44:11.472Z,93.20
2018-08-06T03:46:40.201Z,93.00
2018-08-06T03:49:08.856Z,93.10
2018-08-06T03:51:37.603Z,93.20
2018-08-06T03:54:06.335Z,93.20
2018-08-06T03:56:35.038Z,93.20
2018-08-06T03:59:03.735Z,93.50
2018-08-06T04:01:32.427Z,93.20
2018-08-06T04:04:01.113Z,93.00
2018-08-06T04:06:29.782Z,93.40
2018-08-06T04:08:58.417Z,93.30
2018-08-06T04:11:27.020Z,93.10
2018-08-06T04:13:55.678Z,93.30
2018-08-06T04:16:28.573Z,93.40
2018-08-06T04:18:57.202Z,93.50
2018-08-06T04:21:25.807Z,93.40
2018-08-06T04:23:54.431Z,93.30
2018-08-06T04:26:23.122Z,93.40
2018-08-06T04:28:51.752Z,93.50
2018-08-06T04:31:20.360Z,93.40
2018-08-06T04:33:49.033Z,93.90
2018-08-06T04:36:17.693Z,93.80
2018-08-06T04:38:46.341Z,94.10
2018-08-06T04:41:14.968Z,94.20
2018-08-06T04:43:43.607Z,94.10
2018-08-06T04:46:12.248Z,93.80
2018-08-06T04:48:40.905Z,93.50
2018-08-06T04:51:09.558Z,94.10
2018-08-06T04:53:38.173Z,94.20
2018-08-06T04:56:06.845Z,94.20
2018-08-06T04:58:35.441Z,93.90
2018-08-06T05:01:04.153Z,93.90
2018-08-06T05:03:32.745Z,93.80
2018-08-06T05:06:01.399Z,93.90
2018-08-06T05:08:29.996Z,94.20
2018-08-06T05:10:58.638Z,94.00
2018-08-06T05:13:27.264Z,93.70
2018-08-06T05:15:55.875Z,94.00
2018-08-06T05:18:24.525Z,93.90
2018-08-06T05:20:53.110Z,94.10
2018-08-06T05:23:25.552Z,94.20
2018-08-06T05:25:54.209Z,94.10
2018-08-06T05:28:22.852Z,94.00
2018-08-06T05:30:51.565Z,94.10
2018-08-06T05:33:20.243Z,93.50
2018-08-06T05:35:48.844Z,92.90
2018-08-06T05:38:17.569Z,92.60
2018-08-06T05:40:46.218Z,92.00
2018-08-06T05:43:14.899Z,91.50
2018-08-06T05:45:43.536Z,91.10
2018-08-06T05:48:12.184Z,90.40
2018-08-06T05:50:40.859Z,90.20
2018-08-06T05:53:09.448Z,85.80
2018-08-06T05:55:38.088Z,79.20
2018-08-06T05:58:06.745Z,77.90
2018-08-06T06:00:35.503Z,75.40
2018-08-06T06:03:04.214Z,74.30
2018-08-06T06:05:32.914Z,73.00
2018-08-06T06:08:01.649Z,72.90
2018-08-06T06:10:50.096Z,71.40
2018-08-06T06:13:18.687Z,70.50
2018-08-06T06:15:47.323Z,72.60
2018-08-06T06:18:15.909Z,71.60
2018-08-06T06:20:44.545Z,71.00
2018-08-06T06:23:13.159Z,70.30
2018-08-06T06:25:41.778Z,70.10
2018-08-06T06:28:10.457Z,66.60
2018-08-06T06:30:39.081Z,64.90
2018-08-06T06:33:07.738Z,64.40
2018-08-06T06:35:36.378Z,63.00
2018-08-06T06:38:05.040Z,59.60
2018-08-06T06:40:33.718Z,59.00
2018-08-06T06:43:02.413Z,57.40
2018-08-06T06:45:31.066Z,53.90
2018-08-06T06:47:59.740Z,51.70
2018-08-06T06:50:28.478Z,50.20
2018-08-06T06:52:57.168Z,49.20
2018-08-06T06:55:25.820Z,47.80
2018-08-06T06:57:54.501Z,47.60
2018-08-06T07:00:23.221Z,44.90
2018-08-06T07:02:51.822Z,45.40
2018-08-06T07:05:20.650Z,43.10
2018-08-06T07:07:49.308Z,43.70
2018-08-06T07:10:17.978Z,42.10
2018-08-06T07:12:46.672Z,41.80
2018-08-06T07:15:16.724Z,41.90
2018-08-06T07:17:47.425Z,39.60
2018-08-06T07:20:17.537Z,40.20
2018-08-06T07:22:46.175Z,40.20
2018-08-06T07:25:14.881Z,40.40
2018-08-06T07:27:43.964Z,39.80
2018-08-06T07:30:14.154Z,38.20
2018-08-06T07:32:43.588Z,39.20
2018-08-06T07:37:41.545Z,38.60
2018-08-06T07:40:12.776Z,36.70
2018-08-06T07:42:41.446Z,37.80
2018-08-06T07:45:12.610Z,36.10
2018-08-06T07:47:41.249Z,36.10
2018-08-06T07:50:12.566Z,35.00
2018-08-06T07:52:41.447Z,35.90
2018-08-06T07:55:10.124Z,34.30
2018-08-06T07:57:39.249Z,33.80
2018-08-06T08:00:14.416Z,34.10
2018-08-06T08:02:43.485Z,36.10
2018-08-06T08:05:13.699Z,35.10
2018-08-06T08:07:44.071Z,33.40
2018-08-06T08:10:17.552Z,33.00
2018-08-06T08:12:46.875Z,32.90
2018-08-06T08:15:17.318Z,33.60
2018-08-06T08:17:47.070Z,32.10
2018-08-06T08:20:17.094Z,32.80
2018-08-06T08:22:45.696Z,33.70
2018-08-06T08:25:16.959Z,33.40
2018-08-06T08:27:45.850Z,32.80
2018-08-06T08:30:15.860Z,32.50
2018-08-06T08:32:44.544Z,32.80
2018-08-06T08:35:14.222Z,31.30
2018-08-06T08:37:42.977Z,31.30
2018-08-06T08:40:14.735Z,30.50
2018-08-06T08:42:43.463Z,31.80
2018-08-06T08:45:13.586Z,29.70
2018-08-06T08:47:43.313Z,30.40
2018-08-06T08:50:16.165Z,31.20
2018-08-06T08:52:44.944Z,31.90
2018-08-06T08:55:15.056Z,29.90
2018-08-06T08:57:43.890Z,29.50
2018-08-06T09:00:19.050Z,30.00
2018-08-06T09:02:48.832Z,29.90
2018-08-06T09:05:18.216Z,30.10
2018-08-06T09:07:47.289Z,29.10
2018-08-06T09:10:17.353Z,29.40
2018-08-06T09:12:46.679Z,28.90
2018-08-06T09:15:19.132Z,29.40
2018-08-06T09:17:47.847Z,29.80
2018-08-06T09:20:16.789Z,29.60
2018-08-06T09:22:46.204Z,29.70
2018-08-06T09:25:15.315Z,29.30
2018-08-06T09:27:46.270Z,29.70
2018-08-06T09:30:17.996Z,29.50
2018-08-06T09:32:49.870Z,28.70
2018-08-06T09:35:19.276Z,28.10
2018-08-06T09:37:47.962Z,27.30
2018-08-06T09:40:17.879Z,27.70
2018-08-06T09:42:47.230Z,28.70
2018-08-06T09:45:17.073Z,29.30
2018-08-06T09:47:47.736Z,28.90
2018-08-06T09:50:17.274Z,27.10
2018-08-06T09:52:47.030Z,26.70
2018-08-06T09:55:18.223Z,26.60
2018-08-06T09:57:47.638Z,28.50
2018-08-06T10:00:23.621Z,27.20
2018-08-06T10:02:53.053Z,27.00
2018-08-06T10:05:22.821Z,27.90
2018-08-06T10:07:51.750Z,28.10
2018-08-06T10:10:20.399Z,26.90
2018-08-06T10:12:49.220Z,27.60
2018-08-06T10:15:18.468Z,28.30
2018-08-06T10:17:48.550Z,27.20
2018-08-06T10:20:19.574Z,28.00
2018-08-06T10:22:48.235Z,27.80
2018-08-06T10:25:17.041Z,28.20
2018-08-06T10:27:46.415Z,28.40
2018-08-06T10:30:17.435Z,28.60
2018-08-06T10:32:46.389Z,27.90
2018-08-06T10:35:15.954Z,28.60
2018-08-06T10:37:44.814Z,28.00
2018-08-06T10:40:17.749Z,28.80
2018-08-06T10:42:46.641Z,30.00
2018-08-06T10:45:16.618Z,29.40
2018-08-06T10:47:45.359Z,29.90
2018-08-06T10:50:14.067Z,29.50
2018-08-06T10:52:42.822Z,30.60
2018-08-06T10:55:12.026Z,30.90
2018-08-06T10:57:42.007Z,30.40
2018-08-06T11:00:16.145Z,31.70
2018-08-06T11:02:45.011Z,31.20
2018-08-06T11:05:14.604Z,32.30
2018-08-06T11:07:43.277Z,32.90
2018-08-06T11:10:14.797Z,33.20
2018-08-06T11:12:43.522Z,32.60
2018-08-06T11:15:15.020Z,33.80
2018-08-06T11:17:43.766Z,32.10
2018-08-06T11:20:13.379Z,32.60
2018-08-06T11:22:42.309Z,34.00
2018-08-06T11:25:12.543Z,33.00
2018-08-06T11:27:41.283Z,33.80
2018-08-06T11:30:15.346Z,33.70
2018-08-06T11:32:44.540Z,34.20
2018-08-06T11:35:13.986Z,33.70
2018-08-06T11:37:43.026Z,33.60
2018-08-06T11:40:13.013Z,34.10
2018-08-06T11:42:42.444Z,34.10
2018-08-06T11:45:13.352Z,35.00
2018-08-06T11:47:42.083Z,34.40
2018-08-06T11:50:11.193Z,34.90
2018-08-06T11:52:39.861Z,35.50
2018-08-06T11:55:08.950Z,33.60
2018-08-06T11:57:37.717Z,34.60
2018-08-06T12:00:09.146Z,33.80
2018-08-06T12:02:37.923Z,34.20
2018-08-06T12:05:06.591Z,34.70
2018-08-06T12:07:35.325Z,34.40
2018-08-06T12:10:05.464Z,34.50
2018-08-06T12:12:34.132Z,34.20
2018-08-06T12:15:02.844Z,35.50
2018-08-06T12:17:31.561Z,34.80
2018-08-06T12:20:00.296Z,35.90
2018-08-06T12:22:28.973Z,34.20
2018-08-06T12:24:57.652Z,34.90
2018-08-06T12:27:26.414Z,33.20
2018-08-06T12:29:55.211Z,33.10
2018-08-06T12:32:23.965Z,33.00
2018-08-06T12:34:52.656Z,33.70
2018-08-06T12:37:21.403Z,33.90
2018-08-06T12:39:50.127Z,33.50
2018-08-06T12:42:18.798Z,33.80
2018-08-06T12:44:47.429Z,33.00
2018-08-06T12:47:16.178Z,32.90
2018-08-06T12:49:44.823Z,33.50
2018-08-06T12:54:41.798Z,33.40
2018-08-06T12:57:10.474Z,34.40
2018-08-06T12:59:39.149Z,33.40
2018-08-06T13:02:07.849Z,33.60
2018-08-06T13:04:36.496Z,34.00
2018-08-06T13:07:05.344Z,33.10
2018-08-06T13:09:33.983Z,33.10
2018-08-06T13:12:02.642Z,33.80
2018-08-06T13:14:31.265Z,33.70
2018-08-06T13:17:00.765Z,33.60
2018-08-06T13:19:29.375Z,33.70
2018-08-06T13:21:58.023Z,33.50
2018-08-06T13:24:26.644Z,33.30
2018-08-06T13:26:55.280Z,32.60
2018-08-06T13:29:24.009Z,30.90
2018-08-06T13:31:52.715Z,30.60
2018-08-06T13:34:21.317Z,30.20
2018-08-06T13:36:50.226Z,29.70
2018-08-06T13:39:18.932Z,29.60
2018-08-06T13:41:47.821Z,29.50
2018-08-06T13:44:17.001Z,30.00
2018-08-06T13:46:45.775Z,29.30
2018-08-06T13:49:14.379Z,29.70
2018-08-06T13:51:42.988Z,29.50
2018-08-06T13:54:11.648Z,28.80
2018-08-06T13:56:40.354Z,29.50
2018-08-06T13:59:09.488Z,29.40
2018-08-06T14:01:38.462Z,28.60
2018-08-06T14:04:07.196Z,27.30
2018-08-06T14:06:35.870Z,27.40
2018-08-06T14:09:06.837Z,27.00
2018-08-06T14:11:35.534Z,27.60
2018-08-06T14:14:04.380Z,27.50
2018-08-06T14:16:33.077Z,27.90
2018-08-06T14:19:01.796Z,27.20
2018-08-06T14:21:30.576Z,26.80
2018-08-06T14:23:59.189Z,27.50
2018-08-06T14:26:27.889Z,28.30
2018-08-06T14:40:20.876Z,27.60
2018-08-06T14:42:49.605Z,27.30
2018-08-06T14:45:18.351Z,27.50
2018-08-06T14:47:47.029Z,27.00
2018-08-06T14:50:16.146Z,27.10
2018-08-06T14:52:44.896Z,27.40
2018-08-06T14:55:13.673Z,27.20
2018-08-06T14:57:42.510Z,25.90
2018-08-06T15:00:15.896Z,25.80
2018-08-06T15:02:44.793Z,26.20
2018-08-06T15:05:13.489Z,25.70
2018-08-06T15:07:42.219Z,26.10
2018-08-06T15:10:12.349Z,26.10
2018-08-06T15:12:41.428Z,25.70
2018-08-06T15:15:12.926Z,25.60
2018-08-06T15:17:41.933Z,26.20
2018-08-06T15:20:13.045Z,25.80
2018-08-06T15:22:41.914Z,26.10
2018-08-06T15:25:13.933Z,25.50
2018-08-06T15:27:42.956Z,26.00
2018-08-06T15:30:11.839Z,24.50
2018-08-06T15:32:40.578Z,24.40
2018-08-06T15:35:10.307Z,24.50
2018-08-06T15:37:40.062Z,25.10
2018-08-06T15:40:11.062Z,24.90
2018-08-06T15:42:40.014Z,24.80
2018-08-06T15:45:09.361Z,24.90
2018-08-06T15:47:38.160Z,24.20
2018-08-06T15:50:08.805Z,24.20
2018-08-06T15:52:37.504Z,23.90
2018-08-06T15:55:06.325Z,24.00
2018-08-06T15:57:34.995Z,24.50
2018-08-06T16:00:03.785Z,24.20
2018-08-06T16:02:32.485Z,24.20
2018-08-06T16:05:01.159Z,23.80
2018-08-06T16:07:29.844Z,24.10
2018-08-06T16:09:58.521Z,23.30
2018-08-06T16:12:27.222Z,22.90
2018-08-06T16:14:55.901Z,23.40
2018-08-06T16:17:24.621Z,23.40
2018-08-06T16:19:53.360Z,22.40
2018-08-06T16:22:22.018Z,23.20
2018-08-06T16:24:50.780Z,23.10
2018-08-06T16:27:19.513Z,23.70
2018-08-06T16:29:48.235Z,24.10
2018-08-06T16:32:16.991Z,23.90
2018-08-06T16:34:45.687Z,23.70
2018-08-06T16:37:14.377Z,24.70
2018-08-06T16:39:43.099Z,24.60
2018-08-06T16:42:11.784Z,24.80
2018-08-06T16:44:40.464Z,24.60
2018-08-06T16:47:09.149Z,24.60
2018-08-06T16:49:37.855Z,24.60
2018-08-06T16:52:06.694Z,24.60
2018-08-06T16:54:35.412Z,24.70
2018-08-06T16:57:04.246Z,23.70
2018-08-06T16:59:32.890Z,24.60
2018-08-06T17:02:01.585Z,24.10
2018-08-06T17:04:30.344Z,24.00
2018-08-06T17:06:59.052Z,24.20
2018-08-06T17:09:27.759Z,25.00
2018-08-06T17:14:24.920Z,25.50
2018-08-06T17:16:53.624Z,25.00
2018-08-06T17:19:22.437Z,25.00
2018-08-06T17:21:51.122Z,25.70
2018-08-06T17:24:19.897Z,26.60
2018-08-06T17:26:48.554Z,26.20
2018-08-06T17:29:17.240Z,25.90
2018-08-06T17:31:45.908Z,26.10
2018-08-06T17:34:14.642Z,27.00
2018-08-06T17:36:43.290Z,27.00
2018-08-06T17:39:12.513Z,28.50
2018-08-06T17:41:41.605Z,28.30
2018-08-06T17:44:10.439Z,27.90
2018-08-06T17:46:39.108Z,28.30
2018-08-06T17:49:07.929Z,28.30
2018-08-06T17:51:37.007Z,28.00
2018-08-06T17:54:05.819Z,27.20
2018-08-06T17:56:34.564Z,27.50
2018-08-06T17:59:03.244Z,27.30
2018-08-06T18:01:31.969Z,28.30
2018-08-06T18:04:00.648Z,28.90
2018-08-06T18:06:29.524Z,29.50
2018-08-06T18:08:58.292Z,30.70
2018-08-06T18:11:27.091Z,33.60
2018-08-06T18:13:55.780Z,33.50
2018-08-06T18:16:24.499Z,34.80
2018-08-06T18:18:53.214Z,35.20
2018-08-06T18:21:21.893Z,35.60
2018-08-06T18:23:50.543Z,37.20
2018-08-06T18:26:19.234Z,35.90
2018-08-06T18:28:47.972Z,37.90
2018-08-06T18:31:17.376Z,38.50
2018-08-06T18:33:46.102Z,38.70
2018-08-06T18:36:14.940Z,40.20
2018-08-06T18:38:43.650Z,41.80
2018-08-06T18:41:12.342Z,42.40
2018-08-06T18:43:41.008Z,43.90
2018-08-06T18:46:09.644Z,44.10
2018-08-06T18:48:38.317Z,46.30
2018-08-06T18:51:07.098Z,45.50
2018-08-06T18:53:35.797Z,45.40
2018-08-06T18:56:04.511Z,46.10
2018-08-06T18:58:33.240Z,46.60
2018-08-06T19:01:01.936Z,47.30
2018-08-06T19:03:30.710Z,48.40
2018-08-06T19:05:59.420Z,48.80
2018-08-06T19:08:28.096Z,49.60
2018-08-06T19:10:56.826Z,52.60
2018-08-06T19:13:30.706Z,52.10
2018-08-06T19:15:59.466Z,52.90
2018-08-06T19:18:33.386Z,52.40
2018-08-06T19:21:02.092Z,52.80
2018-08-06T19:23:30.786Z,52.40
2018-08-06T19:25:59.440Z,53.00
2018-08-06T19:28:28.136Z,53.50
2018-08-06T19:31:02.081Z,53.40
2018-08-06T19:33:30.772Z,55.70
2018-08-06T19:35:59.529Z,55.00
2018-08-06T19:38:28.224Z,55.00
2018-08-06T19:40:56.962Z,55.70
2018-08-06T19:43:30.968Z,57.40
2018-08-06T19:45:59.988Z,56.90
2018-08-06T19:48:32.824Z,58.60
2018-08-06T19:51:01.965Z,58.00
2018-08-06T19:53:31.076Z,58.10
2018-08-06T19:56:05.216Z,58.50
2018-08-06T19:58:34.324Z,58.60
2018-08-06T20:01:03.376Z,58.90
2018-08-06T20:03:32.344Z,58.00
2018-08-06T20:06:01.070Z,60.60
2018-08-06T20:08:29.729Z,61.30
2018-08-06T20:10:58.488Z,60.50
2018-08-06T20:13:27.157Z,61.70
2018-08-06T20:15:55.827Z,61.20
2018-08-06T20:18:24.662Z,61.50
2018-08-06T20:20:53.569Z,61.70
2018-08-06T20:23:22.276Z,62.80
2018-08-06T20:25:51.048Z,63.00
2018-08-06T20:28:19.716Z,63.20
2018-08-06T20:30:49.083Z,63.10
2018-08-06T20:33:17.782Z,63.30
2018-08-06T20:35:46.517Z,64.00
2018-08-06T20:38:15.269Z,64.30
2018-08-06T20:40:43.926Z,65.00
2018-08-06T20:43:12.673Z,65.60
2018-08-06T20:45:41.352Z,64.90
2018-08-06T20:48:10.108Z,64.30
2018-08-06T20:50:38.854Z,65.50
2018-08-06T20:53:07.598Z,68.30
2018-08-06T20:55:36.321Z,69.60
2018-08-06T20:58:05.066Z,69.80
2018-08-06T21:00:33.762Z,69.80
2018-08-06T21:03:02.618Z,70.10
2018-08-06T21:05:31.337Z,70.20
2018-08-06T21:08:00.126Z,68.00
2018-08-06T21:10:28.861Z,67.00
2018-08-06T21:12:57.594Z,66.70
2018-08-06T21:15:26.314Z,67.90
2018-08-06T21:17:55.081Z,67.70
2018-08-06T21:20:23.814Z,67.80
2018-08-06T21:22:52.516Z,68.20
2018-08-06T21:25:21.234Z,68.60
2018-08-06T21:27:49.953Z,69.70
2018-08-06T21:30:20.431Z,70.00
2018-08-06T21:32:52.113Z,70.60
2018-08-06T21:35:21.767Z,70.40
2018-08-06T21:37:51.648Z,71.70
2018-08-06T21:40:21.080Z,71.80
2018-08-06T21:42:50.490Z,70.90
2018-08-06T21:45:19.619Z,71.70
2018-08-06T21:47:48.565Z,71.90
2018-08-06T21:50:17.309Z,72.20
2018-08-06T21:52:46.331Z,72.30
2018-08-06T21:55:15.101Z,73.00
2018-08-06T21:57:43.771Z,72.50
2018-08-06T22:00:20.641Z,72.50
2018-08-06T22:02:49.317Z,72.40
2018-08-06T22:05:18.027Z,72.70
2018-08-06T22:07:46.789Z,73.20
2018-08-06T22:10:15.453Z,73.10
2018-08-06T22:12:44.193Z,73.80
2018-08-06T22:15:12.821Z,74.20
2018-08-06T22:17:41.535Z,74.40
2018-08-06T22:20:10.305Z,75.10
2018-08-06T22:22:39.203Z,74.50
2018-08-06T22:25:07.962Z,74.00
2018-08-06T22:27:36.653Z,74.80
2018-08-06T22:30:07.210Z,75.50
2018-08-06T22:32:35.902Z,76.00
2018-08-06T22:35:05.897Z,75.40
2018-08-06T22:37:34.627Z,75.70
2018-08-06T22:40:03.385Z,76.60
2018-08-06T22:42:32.113Z,76.40
2018-08-06T22:45:00.761Z,77.00
2018-08-06T22:47:29.443Z,76.30
2018-08-06T22:52:26.652Z,79.10
2018-08-06T22:54:55.329Z,78.50
2018-08-06T22:57:24.049Z,79.60
2018-08-06T22:59:52.853Z,79.30
2018-08-06T23:02:21.583Z,78.80
2018-08-06T23:04:50.266Z,77.70
2018-08-06T23:07:18.965Z,78.60
2018-08-06T23:09:47.718Z,78.10
2018-08-06T23:12:16.497Z,78.20
2018-08-06T23:14:45.212Z,78.70
2018-08-06T23:17:13.875Z,78.70
2018-08-06T23:19:42.557Z,79.90
2018-08-06T23:22:11.249Z,79.70
2018-08-06T23:24:39.981Z,79.50
2018-08-06T23:27:08.909Z,79.50
2018-08-06T23:29:37.610Z,79.40
2018-08-06T23:32:06.305Z,79.70
2018-08-06T23:34:35.057Z,80.90
2018-08-06T23:37:03.770Z,80.40
2018-08-06T23:39:32.455Z,80.40
2018-08-06T23:42:01.207Z,81.60
2018-08-06T23:44:29.907Z,81.70
2018-08-06T23:46:58.666Z,80.90
2018-08-06T23:49:27.308Z,81.80
2018-08-06T23:54:24.461Z,83.00
2018-08-06T23:56:53.118Z,82.80
2018-08-06T23:59:21.824Z,81.80
